sensor_id;sensor_type;location;lat;lon;timestamp;temperature;humidity
3256;DHT22;1640;48.504;9.224;2023-05-02T00:02:07;9.50;99.90
3256;DHT22;1640;48.504;9.224;2023-05-02T00:04:34;9.50;99.90
3256;DHT22;1640;48.504;9.224;2023-05-02T00:07:02;9.40;99.90
3256;DHT22;1640;48.504;9.224;2023-05-02T00:09:31;9.40;99.90
3256;DHT22;1640;48.504;9.224;2023-05-02T00:11:59;9.40;99.90
3256;DHT22;1640;48.504;9.224;2023-05-02T00:14:27;9.30;99.90
3256;DHT22;1640;48.504;9.224;2023-05-02T00:16:55;9.30;99.90
3256;DHT22;1640;48.504;9.224;2023-05-02T00:19:22;9.20;99.90
3256;DHT22;1640;48.504;9.224;2023-05-02T00:21:50;9.20;99.90
3256;DHT22;1640;48.504;9.224;2023-05-02T00:24:17;9.20;99.90
3256;DHT22;1640;48.504;9.224;2023-05-02T00:26:46;9.20;99.90
3256;DHT22;1640;48.504;9.224;2023-05-02T00:29:14;9.10;99.90
3256;DHT22;1640;48.504;9.224;2023-05-02T00:31:42;9.10;99.90
3256;DHT22;1640;48.504;9.224;2023-05-02T00:34:10;9.00;99.90
3256;DHT22;1640;48.504;9.224;2023-05-02T00:36:37;9.00;99.90
3256;DHT22;1640;48.504;9.224;2023-05-02T00:39:05;9.00;99.90
3256;DHT22;1640;48.504;9.224;2023-05-02T00:41:32;9.00;99.90
3256;DHT22;1640;48.504;9.224;2023-05-02T00:44:01;9.00;99.90
3256;DHT22;1640;48.504;9.224;2023-05-02T00:46:29;8.90;99.90
3256;DHT22;1640;48.504;9.224;2023-05-02T00:48:57;9.00;99.90
3256;DHT22;1640;48.504;9.224;2023-05-02T00:51:25;9.00;99.90
3256;DHT22;1640;48.504;9.224;2023-05-02T00:53:54;8.90;99.90
3256;DHT22;1640;48.504;9.224;2023-05-02T00:56:22;8.90;99.90
3256;DHT22;1640;48.504;9.224;2023-05-02T00:58:50;8.90;99.90
3256;DHT22;1640;48.504;9.224;2023-05-02T01:01:28;8.90;99.90
3256;DHT22;1640;48.504;9.224;2023-05-02T01:04:08;8.80;99.90
3256;DHT22;1640;48.504;9.224;2023-05-02T01:06:47;8.80;99.90
3256;DHT22;1640;48.504;9.224;2023-05-02T01:09:26;8.80;99.90
3256;DHT22;1640;48.504;9.224;2023-05-02T01:12:00;8.70;99.90
3256;DHT22;1640;48.504;9.224;2023-05-02T01:14:32;8.70;99.90
3256;DHT22;1640;48.504;9.224;2023-05-02T01:17:04;8.70;99.90
3256;DHT22;1640;48.504;9.224;2023-05-02T01:19:35;8.60;99.90
3256;DHT22;1640;48.504;9.224;2023-05-02T01:22:07;8.60;99.90
3256;DHT22;1640;48.504;9.224;2023-05-02T01:24:39;8.60;99.90
3256;DHT22;1640;48.504;9.224;2023-05-02T01:27:21;8.60;99.90
3256;DHT22;1640;48.504;9.224;2023-05-02T01:29:52;8.60;99.90
3256;DHT22;1640;48.504;9.224;2023-05-02T01:32:23;8.60;99.90
3256;DHT22;1640;48.504;9.224;2023-05-02T01:34:53;8.60;99.90
3256;DHT22;1640;48.504;9.224;2023-05-02T01:37:23;8.60;99.90
3256;DHT22;1640;48.504;9.224;2023-05-02T01:39:53;8.60;99.90
3256;DHT22;1640;48.504;9.224;2023-05-02T01:42:21;8.60;99.90
3256;DHT22;1640;48.504;9.224;2023-05-02T01:44:52;8.60;99.90
3256;DHT22;1640;48.504;9.224;2023-05-02T01:47:21;8.60;99.90
3256;DHT22;1640;48.504;9.224;2023-05-02T01:49:49;8.60;99.90
3256;DHT22;1640;48.504;9.224;2023-05-02T01:52:19;8.60;99.90
3256;DHT22;1640;48.504;9.224;2023-05-02T01:54:50;8.60;99.90
3256;DHT22;1640;48.504;9.224;2023-05-02T01:57:18;8.60;99.90
3256;DHT22;1640;48.504;9.224;2023-05-02T01:59:47;8.70;99.90
3256;DHT22;1640;48.504;9.224;2023-05-02T02:02:18;8.70;99.90
3256;DHT22;1640;48.504;9.224;2023-05-02T02:04:47;8.70;99.90
3256;DHT22;1640;48.504;9.224;2023-05-02T02:07:16;8.70;99.90
3256;DHT22;1640;48.504;9.224;2023-05-02T02:09:43;8.70;99.90
3256;DHT22;1640;48.504;9.224;2023-05-02T02:12:14;8.60;99.90
3256;DHT22;1640;48.504;9.224;2023-05-02T02:14:47;8.60;99.90
3256;DHT22;1640;48.504;9.224;2023-05-02T02:17:23;8.60;99.90
3256;DHT22;1640;48.504;9.224;2023-05-02T02:19:52;8.60;99.90
3256;DHT22;1640;48.504;9.224;2023-05-02T02:22:23;8.50;99.90
3256;DHT22;1640;48.504;9.224;2023-05-02T02:24:53;8.40;99.90
3256;DHT22;1640;48.504;9.224;2023-05-02T02:27:21;8.40;99.90
3256;DHT22;1640;48.504;9.224;2023-05-02T02:29:48;8.30;99.90
3256;DHT22;1640;48.504;9.224;2023-05-02T02:32:16;8.20;99.90
3256;DHT22;1640;48.504;9.224;2023-05-02T02:34:45;8.20;99.90
3256;DHT22;1640;48.504;9.224;2023-05-02T02:37:15;8.20;99.90
3256;DHT22;1640;48.504;9.224;2023-05-02T02:39:53;8.10;99.90
3256;DHT22;1640;48.504;9.224;2023-05-02T02:42:27;8.10;99.90
3256;DHT22;1640;48.504;9.224;2023-05-02T02:45:10;8.00;99.90
3256;DHT22;1640;48.504;9.224;2023-05-02T02:47:48;8.00;99.90
3256;DHT22;1640;48.504;9.224;2023-05-02T02:50:23;7.90;99.90
3256;DHT22;1640;48.504;9.224;2023-05-02T02:52:56;7.90;99.90
3256;DHT22;1640;48.504;9.224;2023-05-02T02:55:35;7.90;99.90
3256;DHT22;1640;48.504;9.224;2023-05-02T02:58:11;7.80;99.90
3256;DHT22;1640;48.504;9.224;2023-05-02T03:00:42;7.80;99.90
3256;DHT22;1640;48.504;9.224;2023-05-02T03:03:13;7.80;99.90
3256;DHT22;1640;48.504;9.224;2023-05-02T03:05:42;7.70;99.90
3256;DHT22;1640;48.504;9.224;2023-05-02T03:08:10;7.70;99.90
3256;DHT22;1640;48.504;9.224;2023-05-02T03:10:38;7.70;99.90
3256;DHT22;1640;48.504;9.224;2023-05-02T03:13:06;7.70;99.90
3256;DHT22;1640;48.504;9.224;2023-05-02T03:18:44;7.80;99.90
3256;DHT22;1640;48.504;9.224;2023-05-02T03:21:13;7.70;99.90
3256;DHT22;1640;48.504;9.224;2023-05-02T03:23:41;7.70;99.90
3256;DHT22;1640;48.504;9.224;2023-05-02T03:26:09;7.70;99.90
3256;DHT22;1640;48.504;9.224;2023-05-02T03:28:36;7.70;99.90
3256;DHT22;1640;48.504;9.224;2023-05-02T03:31:04;7.60;99.90
3256;DHT22;1640;48.504;9.224;2023-05-02T03:33:32;7.70;99.90
3256;DHT22;1640;48.504;9.224;2023-05-02T03:35:59;7.80;99.90
3256;DHT22;1640;48.504;9.224;2023-05-02T03:38:30;7.80;99.90
3256;DHT22;1640;48.504;9.224;2023-05-02T03:40:57;7.90;99.90
3256;DHT22;1640;48.504;9.224;2023-05-02T03:43:25;7.90;99.90
3256;DHT22;1640;48.504;9.224;2023-05-02T03:45:52;7.90;99.90
3256;DHT22;1640;48.504;9.224;2023-05-02T03:48:20;7.90;99.90
3256;DHT22;1640;48.504;9.224;2023-05-02T03:50:48;7.80;99.90
3256;DHT22;1640;48.504;9.224;2023-05-02T03:53:16;7.70;99.90
3256;DHT22;1640;48.504;9.224;2023-05-02T03:55:45;7.80;99.90
3256;DHT22;1640;48.504;9.224;2023-05-02T03:58:12;7.80;99.90
3256;DHT22;1640;48.504;9.224;2023-05-02T04:00:40;7.90;99.90
3256;DHT22;1640;48.504;9.224;2023-05-02T04:03:07;7.90;99.90
3256;DHT22;1640;48.504;9.224;2023-05-02T04:05:35;8.10;99.90
3256;DHT22;1640;48.504;9.224;2023-05-02T04:08:02;8.10;99.90
3256;DHT22;1640;48.504;9.224;2023-05-02T04:10:30;8.20;99.90
3256;DHT22;1640;48.504;9.224;2023-05-02T04:12:59;8.40;99.90
3256;DHT22;1640;48.504;9.224;2023-05-02T04:15:28;8.40;99.90
3256;DHT22;1640;48.504;9.224;2023-05-02T04:17:57;8.50;99.90
3256;DHT22;1640;48.504;9.224;2023-05-02T04:20:24;8.60;99.90
3256;DHT22;1640;48.504;9.224;2023-05-02T04:22:52;8.70;99.90
3256;DHT22;1640;48.504;9.224;2023-05-02T04:25:20;8.80;99.90
3256;DHT22;1640;48.504;9.224;2023-05-02T04:27:47;8.90;99.90
3256;DHT22;1640;48.504;9.224;2023-05-02T04:30:16;8.90;99.90
3256;DHT22;1640;48.504;9.224;2023-05-02T04:32:44;9.00;99.90
3256;DHT22;1640;48.504;9.224;2023-05-02T04:35:12;9.00;99.90
3256;DHT22;1640;48.504;9.224;2023-05-02T04:37:40;9.00;99.90
3256;DHT22;1640;48.504;9.224;2023-05-02T04:40:08;9.10;99.90
3256;DHT22;1640;48.504;9.224;2023-05-02T04:42:36;9.10;99.90
3256;DHT22;1640;48.504;9.224;2023-05-02T04:45:05;9.20;99.90
3256;DHT22;1640;48.504;9.224;2023-05-02T04:47:35;9.30;99.90
3256;DHT22;1640;48.504;9.224;2023-05-02T04:50:02;9.30;99.90
3256;DHT22;1640;48.504;9.224;2023-05-02T04:52:30;9.30;99.90
3256;DHT22;1640;48.504;9.224;2023-05-02T04:54:58;9.30;99.90
3256;DHT22;1640;48.504;9.224;2023-05-02T04:57:25;9.30;99.90
3256;DHT22;1640;48.504;9.224;2023-05-02T04:59:53;9.20;99.90
3256;DHT22;1640;48.504;9.224;2023-05-02T05:02:21;9.30;99.90
3256;DHT22;1640;48.504;9.224;2023-05-02T05:04:50;9.30;99.90
3256;DHT22;1640;48.504;9.224;2023-05-02T05:07:17;9.40;99.90
3256;DHT22;1640;48.504;9.224;2023-05-02T05:09:45;9.50;99.90
3256;DHT22;1640;48.504;9.224;2023-05-02T05:12:13;9.50;99.90
3256;DHT22;1640;48.504;9.224;2023-05-02T05:14:40;9.60;99.90
3256;DHT22;1640;48.504;9.224;2023-05-02T05:17:08;9.60;99.90
3256;DHT22;1640;48.504;9.224;2023-05-02T05:19:35;9.70;99.90
3256;DHT22;1640;48.504;9.224;2023-05-02T05:22:05;9.80;99.90
3256;DHT22;1640;48.504;9.224;2023-05-02T05:24:32;9.90;99.90
3256;DHT22;1640;48.504;9.224;2023-05-02T05:27:00;9.80;99.90
3256;DHT22;1640;48.504;9.224;2023-05-02T05:29:29;9.90;99.90
3256;DHT22;1640;48.504;9.224;2023-05-02T05:31:57;10.00;99.90
3256;DHT22;1640;48.504;9.224;2023-05-02T05:34:25;10.10;99.90
3256;DHT22;1640;48.504;9.224;2023-05-02T05:36:53;10.20;99.90
3256;DHT22;1640;48.504;9.224;2023-05-02T05:39:22;10.30;99.90
3256;DHT22;1640;48.504;9.224;2023-05-02T05:41:50;10.50;99.90
3256;DHT22;1640;48.504;9.224;2023-05-02T05:44:18;10.60;99.90
3256;DHT22;1640;48.504;9.224;2023-05-02T05:46:47;10.70;99.90
3256;DHT22;1640;48.504;9.224;2023-05-02T05:49:15;10.80;99.90
3256;DHT22;1640;48.504;9.224;2023-05-02T05:51:43;10.90;99.90
3256;DHT22;1640;48.504;9.224;2023-05-02T05:54:12;11.10;99.90
3256;DHT22;1640;48.504;9.224;2023-05-02T05:56:41;11.20;99.90
3256;DHT22;1640;48.504;9.224;2023-05-02T05:59:09;11.10;99.90
3256;DHT22;1640;48.504;9.224;2023-05-02T06:01:36;11.20;99.90
3256;DHT22;1640;48.504;9.224;2023-05-02T06:04:04;11.40;99.90
3256;DHT22;1640;48.504;9.224;2023-05-02T06:06:32;11.40;99.90
3256;DHT22;1640;48.504;9.224;2023-05-02T06:09:00;11.40;99.90
3256;DHT22;1640;48.504;9.224;2023-05-02T06:11:28;11.40;99.90
3256;DHT22;1640;48.504;9.224;2023-05-02T06:13:57;11.50;99.90
3256;DHT22;1640;48.504;9.224;2023-05-02T06:16:24;11.70;99.90
3256;DHT22;1640;48.504;9.224;2023-05-02T06:18:52;11.80;99.90
3256;DHT22;1640;48.504;9.224;2023-05-02T06:21:20;12.00;99.90
3256;DHT22;1640;48.504;9.224;2023-05-02T06:23:47;12.10;99.90
3256;DHT22;1640;48.504;9.224;2023-05-02T06:26:15;12.10;99.90
3256;DHT22;1640;48.504;9.224;2023-05-02T06:28:43;12.20;99.90
3256;DHT22;1640;48.504;9.224;2023-05-02T06:31:12;12.30;99.90
3256;DHT22;1640;48.504;9.224;2023-05-02T06:33:39;12.30;99.90
3256;DHT22;1640;48.504;9.224;2023-05-02T06:36:07;12.50;99.90
3256;DHT22;1640;48.504;9.224;2023-05-02T06:38:36;12.70;99.90
3256;DHT22;1640;48.504;9.224;2023-05-02T06:41:03;12.70;99.90
3256;DHT22;1640;48.504;9.224;2023-05-02T06:43:31;12.90;99.90
3256;DHT22;1640;48.504;9.224;2023-05-02T06:46:00;12.80;99.90
3256;DHT22;1640;48.504;9.224;2023-05-02T06:48:29;12.80;99.90
3256;DHT22;1640;48.504;9.224;2023-05-02T06:50:56;12.80;99.90
3256;DHT22;1640;48.504;9.224;2023-05-02T06:53:24;12.70;99.90
3256;DHT22;1640;48.504;9.224;2023-05-02T06:55:52;12.90;99.90
3256;DHT22;1640;48.504;9.224;2023-05-02T06:58:20;12.90;99.90
3256;DHT22;1640;48.504;9.224;2023-05-02T07:00:47;12.80;99.90
3256;DHT22;1640;48.504;9.224;2023-05-02T07:03:15;12.70;99.90
3256;DHT22;1640;48.504;9.224;2023-05-02T07:05:44;12.60;99.90
3256;DHT22;1640;48.504;9.224;2023-05-02T07:08:12;12.50;99.90
3256;DHT22;1640;48.504;9.224;2023-05-02T07:10:39;12.60;99.90
3256;DHT22;1640;48.504;9.224;2023-05-02T07:13:07;12.80;99.90
3256;DHT22;1640;48.504;9.224;2023-05-02T07:15:35;13.00;99.90
3256;DHT22;1640;48.504;9.224;2023-05-02T07:18:03;12.90;99.90
3256;DHT22;1640;48.504;9.224;2023-05-02T07:20:31;12.90;99.90
3256;DHT22;1640;48.504;9.224;2023-05-02T07:23:02;12.80;99.90
3256;DHT22;1640;48.504;9.224;2023-05-02T07:25:31;12.70;99.90
3256;DHT22;1640;48.504;9.224;2023-05-02T07:27:59;12.80;99.90
3256;DHT22;1640;48.504;9.224;2023-05-02T07:30:26;13.00;99.90
3256;DHT22;1640;48.504;9.224;2023-05-02T07:32:54;13.20;0.80
3256;DHT22;1640;48.504;9.224;2023-05-02T07:35:21;13.10;6.60
3256;DHT22;1640;48.504;9.224;2023-05-02T07:37:49;13.10;3.00
3256;DHT22;1640;48.504;9.224;2023-05-02T07:40:19;13.30;7.80
3256;DHT22;1640;48.504;9.224;2023-05-02T07:42:47;13.40;10.60
3256;DHT22;1640;48.504;9.224;2023-05-02T07:45:15;13.80;12.00
3256;DHT22;1640;48.504;9.224;2023-05-02T07:47:44;13.90;18.40
3256;DHT22;1640;48.504;9.224;2023-05-02T07:50:14;13.70;28.90
3256;DHT22;1640;48.504;9.224;2023-05-02T07:52:42;13.60;27.10
3256;DHT22;1640;48.504;9.224;2023-05-02T07:55:12;13.50;26.00
3256;DHT22;1640;48.504;9.224;2023-05-02T07:57:42;13.40;27.20
3256;DHT22;1640;48.504;9.224;2023-05-02T08:00:10;13.50;25.20
3256;DHT22;1640;48.504;9.224;2023-05-02T08:02:38;13.30;20.40
3256;DHT22;1640;48.504;9.224;2023-05-02T08:05:06;13.30;14.50
3256;DHT22;1640;48.504;9.224;2023-05-02T08:07:34;13.40;19.90
3256;DHT22;1640;48.504;9.224;2023-05-02T08:10:01;13.20;24.10
3256;DHT22;1640;48.504;9.224;2023-05-02T08:12:29;13.30;20.70
3256;DHT22;1640;48.504;9.224;2023-05-02T08:14:58;13.40;22.40
3256;DHT22;1640;48.504;9.224;2023-05-02T08:17:30;13.50;28.00
3256;DHT22;1640;48.504;9.224;2023-05-02T08:19:58;13.50;27.30
3256;DHT22;1640;48.504;9.224;2023-05-02T08:22:26;13.60;21.60
3256;DHT22;1640;48.504;9.224;2023-05-02T08:24:53;13.80;25.30
3256;DHT22;1640;48.504;9.224;2023-05-02T08:27:21;13.80;29.30
3256;DHT22;1640;48.504;9.224;2023-05-02T08:29:49;13.70;30.70
3256;DHT22;1640;48.504;9.224;2023-05-02T08:32:19;13.40;29.70
3256;DHT22;1640;48.504;9.224;2023-05-02T08:34:47;13.20;26.60
3256;DHT22;1640;48.504;9.224;2023-05-02T08:37:15;13.00;19.10
3256;DHT22;1640;48.504;9.224;2023-05-02T08:39:43;13.20;15.40
3256;DHT22;1640;48.504;9.224;2023-05-02T08:42:11;13.30;17.30
3256;DHT22;1640;48.504;9.224;2023-05-02T08:44:38;13.20;17.90
3256;DHT22;1640;48.504;9.224;2023-05-02T08:47:08;13.20;12.20
3256;DHT22;1640;48.504;9.224;2023-05-02T08:49:39;13.50;18.10
3256;DHT22;1640;48.504;9.224;2023-05-02T08:52:07;13.80;23.00
3256;DHT22;1640;48.504;9.224;2023-05-02T08:54:37;13.70;28.70
3256;DHT22;1640;48.504;9.224;2023-05-02T08:57:05;13.70;20.90
3256;DHT22;1640;48.504;9.224;2023-05-02T08:59:33;14.00;25.30
3256;DHT22;1640;48.504;9.224;2023-05-02T09:02:06;14.30;36.40
3256;DHT22;1640;48.504;9.224;2023-05-02T09:04:40;14.40;41.30
3256;DHT22;1640;48.504;9.224;2023-05-02T09:07:08;14.30;39.40
3256;DHT22;1640;48.504;9.224;2023-05-02T09:09:36;14.60;38.00
3256;DHT22;1640;48.504;9.224;2023-05-02T09:12:04;14.60;41.50
3256;DHT22;1640;48.504;9.224;2023-05-02T09:14:32;14.70;41.10
3256;DHT22;1640;48.504;9.224;2023-05-02T09:17:00;15.00;47.20
3256;DHT22;1640;48.504;9.224;2023-05-02T09:19:28;15.30;51.60
3256;DHT22;1640;48.504;9.224;2023-05-02T09:22:00;15.10;56.60
3256;DHT22;1640;48.504;9.224;2023-05-02T09:24:28;15.10;54.20
3256;DHT22;1640;48.504;9.224;2023-05-02T09:26:58;15.10;55.50
3256;DHT22;1640;48.504;9.224;2023-05-02T09:29:27;15.20;53.10
3256;DHT22;1640;48.504;9.224;2023-05-02T09:31:55;15.30;54.70
3256;DHT22;1640;48.504;9.224;2023-05-02T09:34:23;15.50;54.80
3256;DHT22;1640;48.504;9.224;2023-05-02T09:36:51;15.90;54.00
3256;DHT22;1640;48.504;9.224;2023-05-02T09:39:22;16.40;59.20
3256;DHT22;1640;48.504;9.224;2023-05-02T09:41:50;16.80;64.60
3256;DHT22;1640;48.504;9.224;2023-05-02T09:44:20;16.60;66.50
3256;DHT22;1640;48.504;9.224;2023-05-02T09:46:50;16.40;63.70
3256;DHT22;1640;48.504;9.224;2023-05-02T09:49:18;16.70;66.30
3256;DHT22;1640;48.504;9.224;2023-05-02T09:51:46;16.90;67.60
3256;DHT22;1640;48.504;9.224;2023-05-02T09:54:22;17.10;69.90
3256;DHT22;1640;48.504;9.224;2023-05-02T09:57:02;17.10;68.00
3256;DHT22;1640;48.504;9.224;2023-05-02T09:59:32;17.30;67.60
3256;DHT22;1640;48.504;9.224;2023-05-02T10:02:01;17.30;69.50
3256;DHT22;1640;48.504;9.224;2023-05-02T10:04:30;17.30;70.60
3256;DHT22;1640;48.504;9.224;2023-05-02T10:06:58;17.00;70.50
3256;DHT22;1640;48.504;9.224;2023-05-02T10:09:26;17.00;71.20
3256;DHT22;1640;48.504;9.224;2023-05-02T10:12:00;17.00;70.80
3256;DHT22;1640;48.504;9.224;2023-05-02T10:14:35;17.30;71.90
3256;DHT22;1640;48.504;9.224;2023-05-02T10:17:11;17.50;71.60
3256;DHT22;1640;48.504;9.224;2023-05-02T10:19:47;17.50;71.20
3256;DHT22;1640;48.504;9.224;2023-05-02T10:22:20;17.60;72.10
3256;DHT22;1640;48.504;9.224;2023-05-02T10:24:49;17.30;70.60
3256;DHT22;1640;48.504;9.224;2023-05-02T10:27:16;17.30;70.90
3256;DHT22;1640;48.504;9.224;2023-05-02T10:29:46;17.40;71.20
3256;DHT22;1640;48.504;9.224;2023-05-02T10:32:16;17.30;70.00
3256;DHT22;1640;48.504;9.224;2023-05-02T10:34:45;17.50;71.90
3256;DHT22;1640;48.504;9.224;2023-05-02T10:37:14;17.60;71.30
3256;DHT22;1640;48.504;9.224;2023-05-02T10:39:44;17.80;72.50
3256;DHT22;1640;48.504;9.224;2023-05-02T10:42:12;17.80;71.90
3256;DHT22;1640;48.504;9.224;2023-05-02T10:44:41;17.60;72.60
3256;DHT22;1640;48.504;9.224;2023-05-02T10:47:19;17.50;71.90
3256;DHT22;1640;48.504;9.224;2023-05-02T10:49:51;17.50;72.30
3256;DHT22;1640;48.504;9.224;2023-05-02T10:52:25;17.20;72.10
3256;DHT22;1640;48.504;9.224;2023-05-02T10:55:15;16.90;72.60
3256;DHT22;1640;48.504;9.224;2023-05-02T10:58:20;16.60;72.50
3256;DHT22;1640;48.504;9.224;2023-05-02T11:00:49;16.50;72.50
3256;DHT22;1640;48.504;9.224;2023-05-02T11:06:15;16.90;72.50
3256;DHT22;1640;48.504;9.224;2023-05-02T11:08:42;17.20;72.50
3256;DHT22;1640;48.504;9.224;2023-05-02T11:11:38;17.60;71.90
3256;DHT22;1640;48.504;9.224;2023-05-02T11:14:06;17.70;71.30
3256;DHT22;1640;48.504;9.224;2023-05-02T11:17:07;17.80;72.50
3256;DHT22;1640;48.504;9.224;2023-05-02T11:23:18;18.00;71.20
3256;DHT22;1640;48.504;9.224;2023-05-02T11:25:48;17.60;72.50
3256;DHT22;1640;48.504;9.224;2023-05-02T11:28:38;17.80;72.20
3256;DHT22;1640;48.504;9.224;2023-05-02T11:31:07;18.00;72.80
3256;DHT22;1640;48.504;9.224;2023-05-02T11:33:35;18.30;71.90
3256;DHT22;1640;48.504;9.224;2023-05-02T11:36:03;18.30;71.50
3256;DHT22;1640;48.504;9.224;2023-05-02T11:38:38;18.10;71.80
3256;DHT22;1640;48.504;9.224;2023-05-02T11:41:06;18.40;70.90
3256;DHT22;1640;48.504;9.224;2023-05-02T11:43:34;18.50;70.50
3256;DHT22;1640;48.504;9.224;2023-05-02T11:46:01;18.40;71.30
3256;DHT22;1640;48.504;9.224;2023-05-02T11:48:30;18.50;70.90
3256;DHT22;1640;48.504;9.224;2023-05-02T11:50:59;18.50;70.60
3256;DHT22;1640;48.504;9.224;2023-05-02T11:53:30;18.70;71.10
3256;DHT22;1640;48.504;9.224;2023-05-02T11:56:01;18.90;70.20
3256;DHT22;1640;48.504;9.224;2023-05-02T11:58:30;18.60;70.00
3256;DHT22;1640;48.504;9.224;2023-05-02T12:01:09;18.20;71.20
3256;DHT22;1640;48.504;9.224;2023-05-02T12:03:38;18.30;70.30
3256;DHT22;1640;48.504;9.224;2023-05-02T12:06:09;18.20;70.50
3256;DHT22;1640;48.504;9.224;2023-05-02T12:08:37;18.30;70.60
3256;DHT22;1640;48.504;9.224;2023-05-02T12:11:07;18.10;69.90
3256;DHT22;1640;48.504;9.224;2023-05-02T12:13:34;17.80;70.90
3256;DHT22;1640;48.504;9.224;2023-05-02T12:16:10;17.90;70.80
3256;DHT22;1640;48.504;9.224;2023-05-02T12:18:38;17.90;70.20
3256;DHT22;1640;48.504;9.224;2023-05-02T12:21:07;18.10;70.80
3256;DHT22;1640;48.504;9.224;2023-05-02T12:23:35;18.10;67.90
3256;DHT22;1640;48.504;9.224;2023-05-02T12:26:17;18.00;67.80
3256;DHT22;1640;48.504;9.224;2023-05-02T12:28:48;18.10;65.20
3256;DHT22;1640;48.504;9.224;2023-05-02T12:31:16;18.20;65.50
3256;DHT22;1640;48.504;9.224;2023-05-02T12:33:45;18.20;64.60
3256;DHT22;1640;48.504;9.224;2023-05-02T12:36:15;18.30;63.90
3256;DHT22;1640;48.504;9.224;2023-05-02T12:38:47;18.50;64.50
3256;DHT22;1640;48.504;9.224;2023-05-02T12:41:31;18.50;62.90
3256;DHT22;1640;48.504;9.224;2023-05-02T12:43:59;18.70;62.90
3256;DHT22;1640;48.504;9.224;2023-05-02T12:46:27;18.70;64.90
3256;DHT22;1640;48.504;9.224;2023-05-02T12:49:01;18.90;63.60
3256;DHT22;1640;48.504;9.224;2023-05-02T12:51:29;18.90;63.90
3256;DHT22;1640;48.504;9.224;2023-05-02T12:53:57;19.10;63.30
3256;DHT22;1640;48.504;9.224;2023-05-02T12:56:27;19.10;62.40
3256;DHT22;1640;48.504;9.224;2023-05-02T12:58:57;19.00;64.20
3256;DHT22;1640;48.504;9.224;2023-05-02T13:01:26;18.90;65.60
3256;DHT22;1640;48.504;9.224;2023-05-02T13:03:54;19.20;67.00
3256;DHT22;1640;48.504;9.224;2023-05-02T13:06:22;19.80;65.30
3256;DHT22;1640;48.504;9.224;2023-05-02T13:08:50;20.30;62.30
3256;DHT22;1640;48.504;9.224;2023-05-02T13:11:17;20.60;58.60
3256;DHT22;1640;48.504;9.224;2023-05-02T13:13:47;20.30;57.10
3256;DHT22;1640;48.504;9.224;2023-05-02T13:16:14;20.00;59.60
3256;DHT22;1640;48.504;9.224;2023-05-02T13:18:42;19.80;58.90
3256;DHT22;1640;48.504;9.224;2023-05-02T13:21:09;19.60;59.70
3256;DHT22;1640;48.504;9.224;2023-05-02T13:23:37;19.20;60.60
3256;DHT22;1640;48.504;9.224;2023-05-02T13:26:06;19.10;62.90
3256;DHT22;1640;48.504;9.224;2023-05-02T13:28:34;19.10;63.20
3256;DHT22;1640;48.504;9.224;2023-05-02T13:31:04;19.00;63.20
3256;DHT22;1640;48.504;9.224;2023-05-02T13:33:31;18.70;65.30
3256;DHT22;1640;48.504;9.224;2023-05-02T13:35:59;18.60;65.20
3256;DHT22;1640;48.504;9.224;2023-05-02T13:38:26;18.60;64.90
3256;DHT22;1640;48.504;9.224;2023-05-02T13:40:54;18.40;64.20
3256;DHT22;1640;48.504;9.224;2023-05-02T13:43:22;18.30;65.60
3256;DHT22;1640;48.504;9.224;2023-05-02T13:45:49;18.40;66.30
3256;DHT22;1640;48.504;9.224;2023-05-02T13:48:18;18.50;66.20
3256;DHT22;1640;48.504;9.224;2023-05-02T13:50:46;18.00;66.60
3256;DHT22;1640;48.504;9.224;2023-05-02T13:53:14;17.80;66.70
3256;DHT22;1640;48.504;9.224;2023-05-02T13:55:41;17.50;67.30
3256;DHT22;1640;48.504;9.224;2023-05-02T13:58:09;17.60;66.20
3256;DHT22;1640;48.504;9.224;2023-05-02T14:00:36;17.70;64.30
3256;DHT22;1640;48.504;9.224;2023-05-02T14:03:04;17.80;65.20
3256;DHT22;1640;48.504;9.224;2023-05-02T14:05:33;17.80;64.90
3256;DHT22;1640;48.504;9.224;2023-05-02T14:08:01;18.00;62.90
3256;DHT22;1640;48.504;9.224;2023-05-02T14:10:29;18.30;62.40
3256;DHT22;1640;48.504;9.224;2023-05-02T14:12:56;18.50;60.40
3256;DHT22;1640;48.504;9.224;2023-05-02T14:15:24;18.60;62.70
3256;DHT22;1640;48.504;9.224;2023-05-02T14:17:52;18.00;68.00
3256;DHT22;1640;48.504;9.224;2023-05-02T14:20:20;17.70;69.50
3256;DHT22;1640;48.504;9.224;2023-05-02T14:22:50;17.40;70.90
3256;DHT22;1640;48.504;9.224;2023-05-02T14:25:17;17.40;71.10
3256;DHT22;1640;48.504;9.224;2023-05-02T14:27:45;17.40;70.60
3256;DHT22;1640;48.504;9.224;2023-05-02T14:30:13;17.50;70.00
3256;DHT22;1640;48.504;9.224;2023-05-02T14:32:41;17.70;70.00
3256;DHT22;1640;48.504;9.224;2023-05-02T14:35:09;18.20;67.90
3256;DHT22;1640;48.504;9.224;2023-05-02T14:37:36;18.60;68.00
3256;DHT22;1640;48.504;9.224;2023-05-02T14:40:07;18.90;66.60
3256;DHT22;1640;48.504;9.224;2023-05-02T14:42:35;18.90;66.50
3256;DHT22;1640;48.504;9.224;2023-05-02T14:45:04;18.80;65.60
3256;DHT22;1640;48.504;9.224;2023-05-02T14:47:31;18.50;66.50
3256;DHT22;1640;48.504;9.224;2023-05-02T14:49:59;18.10;67.20
3256;DHT22;1640;48.504;9.224;2023-05-02T14:52:28;18.00;68.60
3256;DHT22;1640;48.504;9.224;2023-05-02T14:54:58;17.80;67.20
3256;DHT22;1640;48.504;9.224;2023-05-02T14:57:27;17.80;64.70
3256;DHT22;1640;48.504;9.224;2023-05-02T14:59:54;18.50;66.20
3256;DHT22;1640;48.504;9.224;2023-05-02T15:02:22;19.90;59.60
3256;DHT22;1640;48.504;9.224;2023-05-02T15:04:51;21.20;53.10
3256;DHT22;1640;48.504;9.224;2023-05-02T15:07:18;22.30;49.90
3256;DHT22;1640;48.504;9.224;2023-05-02T15:09:46;23.20;46.00
3256;DHT22;1640;48.504;9.224;2023-05-02T15:12:14;22.90;45.70
3256;DHT22;1640;48.504;9.224;2023-05-02T15:14:43;22.00;47.10
3256;DHT22;1640;48.504;9.224;2023-05-02T15:17:10;21.20;49.40
3256;DHT22;1640;48.504;9.224;2023-05-02T15:19:38;21.10;48.60
3256;DHT22;1640;48.504;9.224;2023-05-02T15:22:05;21.30;49.40
3256;DHT22;1640;48.504;9.224;2023-05-02T15:24:33;21.10;49.30
3256;DHT22;1640;48.504;9.224;2023-05-02T15:27:01;20.40;51.60
3256;DHT22;1640;48.504;9.224;2023-05-02T15:29:28;20.20;54.00
3256;DHT22;1640;48.504;9.224;2023-05-02T15:31:57;20.10;54.70
3256;DHT22;1640;48.504;9.224;2023-05-02T15:34:25;20.00;55.00
3256;DHT22;1640;48.504;9.224;2023-05-02T15:36:53;20.40;53.30
3256;DHT22;1640;48.504;9.224;2023-05-02T15:39:21;20.70;53.90
3256;DHT22;1640;48.504;9.224;2023-05-02T15:41:51;21.20;50.80
3256;DHT22;1640;48.504;9.224;2023-05-02T15:44:18;21.50;51.60
3256;DHT22;1640;48.504;9.224;2023-05-02T15:46:46;22.40;49.10
3256;DHT22;1640;48.504;9.224;2023-05-02T15:49:16;23.30;46.40
3256;DHT22;1640;48.504;9.224;2023-05-02T15:51:43;23.80;46.70
3256;DHT22;1640;48.504;9.224;2023-05-02T15:54:11;23.70;45.60
3256;DHT22;1640;48.504;9.224;2023-05-02T15:56:38;23.00;46.30
3256;DHT22;1640;48.504;9.224;2023-05-02T15:59:06;22.60;48.20
3256;DHT22;1640;48.504;9.224;2023-05-02T16:01:33;23.10;47.10
3256;DHT22;1640;48.504;9.224;2023-05-02T16:04:01;23.30;44.20
3256;DHT22;1640;48.504;9.224;2023-05-02T16:06:33;23.00;44.80
3256;DHT22;1640;48.504;9.224;2023-05-02T16:09:01;22.50;45.60
3256;DHT22;1640;48.504;9.224;2023-05-02T16:11:29;22.00;47.40
3256;DHT22;1640;48.504;9.224;2023-05-02T16:13:56;21.10;48.90
3256;DHT22;1640;48.504;9.224;2023-05-02T16:16:26;20.60;50.10
3256;DHT22;1640;48.504;9.224;2023-05-02T16:18:54;19.90;51.20
3256;DHT22;1640;48.504;9.224;2023-05-02T16:21:21;19.50;54.00
3256;DHT22;1640;48.504;9.224;2023-05-02T16:23:50;19.40;57.00
3256;DHT22;1640;48.504;9.224;2023-05-02T16:26:18;19.20;58.80
3256;DHT22;1640;48.504;9.224;2023-05-02T16:28:46;18.80;59.60
3256;DHT22;1640;48.504;9.224;2023-05-02T16:31:14;18.50;61.40